sensor_id;sensor_type;location;lat;lon;timestamp;temperature;humidity
14172;DHT22;7165;52.388;4.928;2023-05-15T00:02:14;10.60;99.90
14172;DHT22;7165;52.388;4.928;2023-05-15T00:04:41;10.60;99.90
14172;DHT22;7165;52.388;4.928;2023-05-15T00:07:07;10.60;99.90
14172;DHT22;7165;52.388;4.928;2023-05-15T00:09:34;10.60;99.90
14172;DHT22;7165;52.388;4.928;2023-05-15T00:12:00;10.50;99.90
14172;DHT22;7165;52.388;4.928;2023-05-15T00:14:28;10.60;99.90
14172;DHT22;7165;52.388;4.928;2023-05-15T00:16:55;10.50;99.90
14172;DHT22;7165;52.388;4.928;2023-05-15T00:19:21;10.60;99.90
14172;DHT22;7165;52.388;4.928;2023-05-15T00:21:48;10.50;99.90
14172;DHT22;7165;52.388;4.928;2023-05-15T00:24:14;10.50;99.90
14172;DHT22;7165;52.388;4.928;2023-05-15T00:26:41;10.40;99.90
14172;DHT22;7165;52.388;4.928;2023-05-15T00:29:08;10.30;99.90
14172;DHT22;7165;52.388;4.928;2023-05-15T00:31:36;10.30;99.90
14172;DHT22;7165;52.388;4.928;2023-05-15T00:34:02;10.30;99.90
14172;DHT22;7165;52.388;4.928;2023-05-15T00:36:29;10.20;99.90
14172;DHT22;7165;52.388;4.928;2023-05-15T00:38:56;10.20;99.90
14172;DHT22;7165;52.388;4.928;2023-05-15T00:41:22;10.20;99.90
14172;DHT22;7165;52.388;4.928;2023-05-15T00:43:50;10.20;99.90
14172;DHT22;7165;52.388;4.928;2023-05-15T00:46:18;10.10;99.90
14172;DHT22;7165;52.388;4.928;2023-05-15T00:48:47;10.10;99.90
14172;DHT22;7165;52.388;4.928;2023-05-15T00:51:15;10.10;99.90
14172;DHT22;7165;52.388;4.928;2023-05-15T00:53:42;10.00;99.90
14172;DHT22;7165;52.388;4.928;2023-05-15T00:56:09;10.10;99.90
14172;DHT22;7165;52.388;4.928;2023-05-15T00:58:36;10.00;99.90
14172;DHT22;7165;52.388;4.928;2023-05-15T01:01:03;10.00;99.90
14172;DHT22;7165;52.388;4.928;2023-05-15T01:03:31;10.00;99.90
14172;DHT22;7165;52.388;4.928;2023-05-15T01:05:59;10.00;99.90
14172;DHT22;7165;52.388;4.928;2023-05-15T01:08:26;10.00;99.90
14172;DHT22;7165;52.388;4.928;2023-05-15T01:10:53;9.90;99.90
14172;DHT22;7165;52.388;4.928;2023-05-15T01:13:20;10.00;99.90
14172;DHT22;7165;52.388;4.928;2023-05-15T01:15:47;10.00;99.90
14172;DHT22;7165;52.388;4.928;2023-05-15T01:18:14;10.00;99.90
14172;DHT22;7165;52.388;4.928;2023-05-15T01:20:45;9.90;99.90
14172;DHT22;7165;52.388;4.928;2023-05-15T01:23:16;9.90;99.90
14172;DHT22;7165;52.388;4.928;2023-05-15T01:28:32;10.00;99.90
14172;DHT22;7165;52.388;4.928;2023-05-15T01:31:00;10.00;99.90
14172;DHT22;7165;52.388;4.928;2023-05-15T01:33:32;10.00;99.90
14172;DHT22;7165;52.388;4.928;2023-05-15T01:36:02;10.00;99.90
14172;DHT22;7165;52.388;4.928;2023-05-15T01:38:33;10.00;99.90
14172;DHT22;7165;52.388;4.928;2023-05-15T01:41:01;10.10;99.90
14172;DHT22;7165;52.388;4.928;2023-05-15T01:43:28;10.10;99.90
14172;DHT22;7165;52.388;4.928;2023-05-15T01:45:58;10.10;99.90
14172;DHT22;7165;52.388;4.928;2023-05-15T01:48:25;10.10;99.90
14172;DHT22;7165;52.388;4.928;2023-05-15T01:50:53;10.20;99.90
14172;DHT22;7165;52.388;4.928;2023-05-15T01:53:20;10.30;99.90
14172;DHT22;7165;52.388;4.928;2023-05-15T01:55:47;10.30;99.90
14172;DHT22;7165;52.388;4.928;2023-05-15T01:58:13;10.30;99.90
14172;DHT22;7165;52.388;4.928;2023-05-15T02:00:41;10.30;99.90
14172;DHT22;7165;52.388;4.928;2023-05-15T02:03:09;10.30;99.90
14172;DHT22;7165;52.388;4.928;2023-05-15T02:05:36;10.20;99.90
14172;DHT22;7165;52.388;4.928;2023-05-15T02:08:03;10.20;99.90
14172;DHT22;7165;52.388;4.928;2023-05-15T02:10:30;10.20;99.90
14172;DHT22;7165;52.388;4.928;2023-05-15T02:12:58;10.10;99.90
14172;DHT22;7165;52.388;4.928;2023-05-15T02:15:25;10.00;99.90
14172;DHT22;7165;52.388;4.928;2023-05-15T02:17:52;10.00;99.90
14172;DHT22;7165;52.388;4.928;2023-05-15T02:20:20;9.90;99.90
14172;DHT22;7165;52.388;4.928;2023-05-15T02:22:47;9.90;99.90
14172;DHT22;7165;52.388;4.928;2023-05-15T02:25:13;10.00;99.90
14172;DHT22;7165;52.388;4.928;2023-05-15T02:27:42;10.00;99.90
14172;DHT22;7165;52.388;4.928;2023-05-15T02:30:13;10.00;99.90
14172;DHT22;7165;52.388;4.928;2023-05-15T02:32:48;10.00;99.90
14172;DHT22;7165;52.388;4.928;2023-05-15T02:35:17;10.10;99.90
14172;DHT22;7165;52.388;4.928;2023-05-15T02:37:47;10.20;99.90
14172;DHT22;7165;52.388;4.928;2023-05-15T02:40:15;10.30;99.90
14172;DHT22;7165;52.388;4.928;2023-05-15T02:42:42;10.30;99.90
14172;DHT22;7165;52.388;4.928;2023-05-15T02:45:10;10.40;99.90
14172;DHT22;7165;52.388;4.928;2023-05-15T02:47:37;10.40;99.90
14172;DHT22;7165;52.388;4.928;2023-05-15T02:50:06;10.50;99.90
14172;DHT22;7165;52.388;4.928;2023-05-15T02:52:33;10.50;99.90
14172;DHT22;7165;52.388;4.928;2023-05-15T02:55:02;10.50;99.90
14172;DHT22;7165;52.388;4.928;2023-05-15T02:57:28;10.50;99.90
14172;DHT22;7165;52.388;4.928;2023-05-15T02:59:56;10.50;99.90
14172;DHT22;7165;52.388;4.928;2023-05-15T03:02:23;10.40;99.90
14172;DHT22;7165;52.388;4.928;2023-05-15T03:04:49;10.40;99.90
14172;DHT22;7165;52.388;4.928;2023-05-15T03:07:16;10.40;99.90
14172;DHT22;7165;52.388;4.928;2023-05-15T03:09:43;10.30;99.90
14172;DHT22;7165;52.388;4.928;2023-05-15T03:12:11;10.20;99.90
14172;DHT22;7165;52.388;4.928;2023-05-15T03:14:37;10.20;99.90
14172;DHT22;7165;52.388;4.928;2023-05-15T03:17:04;10.10;99.90
14172;DHT22;7165;52.388;4.928;2023-05-15T03:19:31;10.10;99.90
14172;DHT22;7165;52.388;4.928;2023-05-15T03:21:57;10.00;99.90
14172;DHT22;7165;52.388;4.928;2023-05-15T03:24:24;10.00;99.90
14172;DHT22;7165;52.388;4.928;2023-05-15T03:26:51;10.00;99.90
14172;DHT22;7165;52.388;4.928;2023-05-15T03:29:19;10.00;99.90
14172;DHT22;7165;52.388;4.928;2023-05-15T03:31:46;10.00;99.90
14172;DHT22;7165;52.388;4.928;2023-05-15T03:34:12;10.00;99.90
14172;DHT22;7165;52.388;4.928;2023-05-15T03:36:39;10.00;99.90
14172;DHT22;7165;52.388;4.928;2023-05-15T03:39:06;10.00;99.90
14172;DHT22;7165;52.388;4.928;2023-05-15T03:41:33;10.00;99.90
14172;DHT22;7165;52.388;4.928;2023-05-15T03:44:00;10.10;99.90
14172;DHT22;7165;52.388;4.928;2023-05-15T03:46:28;10.10;99.90
14172;DHT22;7165;52.388;4.928;2023-05-15T03:48:54;10.10;99.90
14172;DHT22;7165;52.388;4.928;2023-05-15T03:51:21;10.10;99.90
14172;DHT22;7165;52.388;4.928;2023-05-15T03:53:48;10.10;99.90
14172;DHT22;7165;52.388;4.928;2023-05-15T03:56:15;10.10;99.90
14172;DHT22;7165;52.388;4.928;2023-05-15T03:58:42;10.20;99.90
14172;DHT22;7165;52.388;4.928;2023-05-15T04:01:09;10.20;99.90
14172;DHT22;7165;52.388;4.928;2023-05-15T04:03:37;10.30;99.90
14172;DHT22;7165;52.388;4.928;2023-05-15T04:06:04;10.30;99.90
14172;DHT22;7165;52.388;4.928;2023-05-15T04:08:31;10.40;99.90
14172;DHT22;7165;52.388;4.928;2023-05-15T04:10:58;10.40;99.90
14172;DHT22;7165;52.388;4.928;2023-05-15T04:13:24;10.40;99.90
14172;DHT22;7165;52.388;4.928;2023-05-15T04:15:51;10.40;99.90
14172;DHT22;7165;52.388;4.928;2023-05-15T04:18:18;10.40;99.90
14172;DHT22;7165;52.388;4.928;2023-05-15T04:20:46;10.30;99.90
14172;DHT22;7165;52.388;4.928;2023-05-15T04:23:13;10.30;99.90
14172;DHT22;7165;52.388;4.928;2023-05-15T04:25:40;10.30;99.90
14172;DHT22;7165;52.388;4.928;2023-05-15T04:28:10;10.30;99.90
14172;DHT22;7165;52.388;4.928;2023-05-15T04:30:37;10.30;99.90
14172;DHT22;7165;52.388;4.928;2023-05-15T04:33:04;10.30;99.90
14172;DHT22;7165;52.388;4.928;2023-05-15T04:35:31;10.30;99.90
14172;DHT22;7165;52.388;4.928;2023-05-15T04:37:59;10.30;99.90
14172;DHT22;7165;52.388;4.928;2023-05-15T04:40:26;10.30;99.90
14172;DHT22;7165;52.388;4.928;2023-05-15T04:42:52;10.30;99.90
14172;DHT22;7165;52.388;4.928;2023-05-15T04:45:19;10.30;99.90
14172;DHT22;7165;52.388;4.928;2023-05-15T04:47:46;10.40;99.90
14172;DHT22;7165;52.388;4.928;2023-05-15T04:50:13;10.40;99.90
14172;DHT22;7165;52.388;4.928;2023-05-15T04:52:39;10.50;99.90
14172;DHT22;7165;52.388;4.928;2023-05-15T04:55:09;10.50;99.90
14172;DHT22;7165;52.388;4.928;2023-05-15T04:57:35;10.60;99.90
14172;DHT22;7165;52.388;4.928;2023-05-15T05:00:02;10.60;99.90
14172;DHT22;7165;52.388;4.928;2023-05-15T05:02:34;10.70;99.90
14172;DHT22;7165;52.388;4.928;2023-05-15T05:05:01;10.70;99.90
14172;DHT22;7165;52.388;4.928;2023-05-15T05:07:27;10.70;99.90
14172;DHT22;7165;52.388;4.928;2023-05-15T05:09:54;10.80;99.90
14172;DHT22;7165;52.388;4.928;2023-05-15T05:12:22;10.80;99.90
14172;DHT22;7165;52.388;4.928;2023-05-15T05:14:48;10.90;99.90
14172;DHT22;7165;52.388;4.928;2023-05-15T05:17:15;10.90;99.90
14172;DHT22;7165;52.388;4.928;2023-05-15T05:19:41;11.00;99.90
14172;DHT22;7165;52.388;4.928;2023-05-15T05:22:08;11.10;99.90
14172;DHT22;7165;52.388;4.928;2023-05-15T05:24:35;11.10;99.90
14172;DHT22;7165;52.388;4.928;2023-05-15T05:27:01;11.20;99.90
14172;DHT22;7165;52.388;4.928;2023-05-15T05:29:29;11.30;99.90
14172;DHT22;7165;52.388;4.928;2023-05-15T05:31:56;11.30;99.90
14172;DHT22;7165;52.388;4.928;2023-05-15T05:34:23;11.30;99.90
14172;DHT22;7165;52.388;4.928;2023-05-15T05:36:49;11.30;99.90
14172;DHT22;7165;52.388;4.928;2023-05-15T05:39:16;11.40;99.90
14172;DHT22;7165;52.388;4.928;2023-05-15T05:41:42;11.40;99.90
14172;DHT22;7165;52.388;4.928;2023-05-15T05:44:09;11.50;99.90
14172;DHT22;7165;52.388;4.928;2023-05-15T05:46:37;11.50;99.90
14172;DHT22;7165;52.388;4.928;2023-05-15T05:49:04;11.50;99.90
14172;DHT22;7165;52.388;4.928;2023-05-15T05:51:30;11.60;99.90
14172;DHT22;7165;52.388;4.928;2023-05-15T05:53:57;11.60;99.90
14172;DHT22;7165;52.388;4.928;2023-05-15T05:56:23;11.60;99.90
14172;DHT22;7165;52.388;4.928;2023-05-15T05:58:50;11.70;99.90
14172;DHT22;7165;52.388;4.928;2023-05-15T06:01:17;11.80;99.90
14172;DHT22;7165;52.388;4.928;2023-05-15T06:03:45;11.70;99.90
14172;DHT22;7165;52.388;4.928;2023-05-15T06:06:11;11.70;99.90
14172;DHT22;7165;52.388;4.928;2023-05-15T06:08:38;11.70;99.90
14172;DHT22;7165;52.388;4.928;2023-05-15T06:11:05;11.70;99.90
14172;DHT22;7165;52.388;4.928;2023-05-15T06:13:31;11.80;99.90
14172;DHT22;7165;52.388;4.928;2023-05-15T06:15:58;11.80;99.90
14172;DHT22;7165;52.388;4.928;2023-05-15T06:18:24;11.80;99.90
14172;DHT22;7165;52.388;4.928;2023-05-15T06:20:52;11.80;99.90
14172;DHT22;7165;52.388;4.928;2023-05-15T06:23:19;11.90;99.90
14172;DHT22;7165;52.388;4.928;2023-05-15T06:25:45;11.90;99.90
14172;DHT22;7165;52.388;4.928;2023-05-15T06:28:12;12.00;99.90
14172;DHT22;7165;52.388;4.928;2023-05-15T06:30:38;12.00;99.90
14172;DHT22;7165;52.388;4.928;2023-05-15T06:33:05;12.10;99.90
14172;DHT22;7165;52.388;4.928;2023-05-15T06:35:32;12.10;99.90
14172;DHT22;7165;52.388;4.928;2023-05-15T06:37:59;12.20;99.90
14172;DHT22;7165;52.388;4.928;2023-05-15T06:40:26;12.30;99.90
14172;DHT22;7165;52.388;4.928;2023-05-15T06:42:53;12.50;99.90
14172;DHT22;7165;52.388;4.928;2023-05-15T06:45:19;12.60;99.90
14172;DHT22;7165;52.388;4.928;2023-05-15T06:47:46;12.80;99.90
14172;DHT22;7165;52.388;4.928;2023-05-15T06:50:12;12.90;99.90
14172;DHT22;7165;52.388;4.928;2023-05-15T06:52:39;13.00;99.90
14172;DHT22;7165;52.388;4.928;2023-05-15T06:55:07;13.10;99.90
14172;DHT22;7165;52.388;4.928;2023-05-15T06:57:34;13.10;99.90
14172;DHT22;7165;52.388;4.928;2023-05-15T07:00:00;13.20;99.90
14172;DHT22;7165;52.388;4.928;2023-05-15T07:02:27;13.20;99.90
14172;DHT22;7165;52.388;4.928;2023-05-15T07:04:54;13.20;99.90
14172;DHT22;7165;52.388;4.928;2023-05-15T07:07:20;13.20;99.90
14172;DHT22;7165;52.388;4.928;2023-05-15T07:09:47;13.30;99.90
14172;DHT22;7165;52.388;4.928;2023-05-15T07:12:15;13.30;99.90
14172;DHT22;7165;52.388;4.928;2023-05-15T07:14:42;13.40;99.90
14172;DHT22;7165;52.388;4.928;2023-05-15T07:17:08;13.40;99.90
14172;DHT22;7165;52.388;4.928;2023-05-15T07:19:35;13.40;99.90
14172;DHT22;7165;52.388;4.928;2023-05-15T07:22:02;13.50;99.90
14172;DHT22;7165;52.388;4.928;2023-05-15T07:24:28;13.60;99.90
14172;DHT22;7165;52.388;4.928;2023-05-15T07:26:55;13.70;99.90
14172;DHT22;7165;52.388;4.928;2023-05-15T07:29:23;13.80;99.90
14172;DHT22;7165;52.388;4.928;2023-05-15T07:31:50;13.90;99.90
14172;DHT22;7165;52.388;4.928;2023-05-15T07:34:16;13.90;99.90
14172;DHT22;7165;52.388;4.928;2023-05-15T07:36:43;13.90;99.90
14172;DHT22;7165;52.388;4.928;2023-05-15T07:39:09;14.00;99.90
14172;DHT22;7165;52.388;4.928;2023-05-15T07:41:36;14.00;99.90
14172;DHT22;7165;52.388;4.928;2023-05-15T07:44:02;13.90;99.90
14172;DHT22;7165;52.388;4.928;2023-05-15T07:46:30;13.90;99.90
14172;DHT22;7165;52.388;4.928;2023-05-15T07:52:00;13.80;99.90
14172;DHT22;7165;52.388;4.928;2023-05-15T07:54:26;13.70;99.90
14172;DHT22;7165;52.388;4.928;2023-05-15T07:56:55;13.70;99.90
14172;DHT22;7165;52.388;4.928;2023-05-15T07:59:22;13.70;99.90
14172;DHT22;7165;52.388;4.928;2023-05-15T08:01:50;13.60;99.90
14172;DHT22;7165;52.388;4.928;2023-05-15T08:04:17;13.60;99.90
14172;DHT22;7165;52.388;4.928;2023-05-15T08:06:43;13.50;99.90
14172;DHT22;7165;52.388;4.928;2023-05-15T08:09:10;13.50;99.90
14172;DHT22;7165;52.388;4.928;2023-05-15T08:11:37;13.40;99.90
14172;DHT22;7165;52.388;4.928;2023-05-15T08:14:03;13.40;99.90
14172;DHT22;7165;52.388;4.928;2023-05-15T08:16:30;13.40;99.90
14172;DHT22;7165;52.388;4.928;2023-05-15T08:18:58;13.40;99.90
14172;DHT22;7165;52.388;4.928;2023-05-15T08:21:27;13.40;99.90
14172;DHT22;7165;52.388;4.928;2023-05-15T08:23:55;13.40;99.90
14172;DHT22;7165;52.388;4.928;2023-05-15T08:26:21;13.50;99.90
14172;DHT22;7165;52.388;4.928;2023-05-15T08:28:48;13.40;99.90
14172;DHT22;7165;52.388;4.928;2023-05-15T08:31:14;13.30;99.90
14172;DHT22;7165;52.388;4.928;2023-05-15T08:33:41;13.30;99.90
14172;DHT22;7165;52.388;4.928;2023-05-15T08:36:09;13.20;99.90
14172;DHT22;7165;52.388;4.928;2023-05-15T08:38:36;13.20;99.90
14172;DHT22;7165;52.388;4.928;2023-05-15T08:41:05;13.30;99.90
14172;DHT22;7165;52.388;4.928;2023-05-15T08:43:32;13.30;99.90
14172;DHT22;7165;52.388;4.928;2023-05-15T08:46:01;13.30;99.90
14172;DHT22;7165;52.388;4.928;2023-05-15T08:48:28;13.30;99.90
14172;DHT22;7165;52.388;4.928;2023-05-15T08:50:55;13.40;99.90
14172;DHT22;7165;52.388;4.928;2023-05-15T08:53:24;13.40;99.90
14172;DHT22;7165;52.388;4.928;2023-05-15T08:55:50;13.40;99.90
14172;DHT22;7165;52.388;4.928;2023-05-15T08:58:17;13.40;99.90
14172;DHT22;7165;52.388;4.928;2023-05-15T09:00:45;13.50;99.90
14172;DHT22;7165;52.388;4.928;2023-05-15T09:03:13;13.60;99.90
14172;DHT22;7165;52.388;4.928;2023-05-15T09:05:40;13.70;99.90
14172;DHT22;7165;52.388;4.928;2023-05-15T09:08:06;13.70;99.90
14172;DHT22;7165;52.388;4.928;2023-05-15T09:10:34;13.80;99.90
14172;DHT22;7165;52.388;4.928;2023-05-15T09:13:01;13.80;99.90
14172;DHT22;7165;52.388;4.928;2023-05-15T09:15:28;13.80;99.90
14172;DHT22;7165;52.388;4.928;2023-05-15T09:17:55;13.90;99.90
14172;DHT22;7165;52.388;4.928;2023-05-15T09:20:25;13.90;99.90
14172;DHT22;7165;52.388;4.928;2023-05-15T09:22:52;13.80;99.90
14172;DHT22;7165;52.388;4.928;2023-05-15T09:25:36;13.90;99.90
14172;DHT22;7165;52.388;4.928;2023-05-15T09:28:03;13.80;99.90
14172;DHT22;7165;52.388;4.928;2023-05-15T09:30:30;13.80;99.90
14172;DHT22;7165;52.388;4.928;2023-05-15T09:32:59;13.70;99.90
14172;DHT22;7165;52.388;4.928;2023-05-15T09:35:29;13.80;99.90
14172;DHT22;7165;52.388;4.928;2023-05-15T09:37:56;13.80;99.90
14172;DHT22;7165;52.388;4.928;2023-05-15T09:40:25;13.80;99.90
14172;DHT22;7165;52.388;4.928;2023-05-15T09:42:54;13.80;99.90
14172;DHT22;7165;52.388;4.928;2023-05-15T09:45:21;13.70;99.90
14172;DHT22;7165;52.388;4.928;2023-05-15T09:47:49;13.70;99.90
14172;DHT22;7165;52.388;4.928;2023-05-15T09:50:19;13.70;99.90
14172;DHT22;7165;52.388;4.928;2023-05-15T09:52:45;13.70;99.90
14172;DHT22;7165;52.388;4.928;2023-05-15T09:55:13;13.70;99.90
14172;DHT22;7165;52.388;4.928;2023-05-15T09:57:43;13.80;99.90
14172;DHT22;7165;52.388;4.928;2023-05-15T10:00:12;13.80;99.90
14172;DHT22;7165;52.388;4.928;2023-05-15T10:02:39;13.80;99.90
14172;DHT22;7165;52.388;4.928;2023-05-15T10:05:06;13.80;99.90
14172;DHT22;7165;52.388;4.928;2023-05-15T10:07:33;13.80;99.90
14172;DHT22;7165;52.388;4.928;2023-05-15T10:10:00;13.90;99.90
14172;DHT22;7165;52.388;4.928;2023-05-15T10:12:27;13.80;99.90
14172;DHT22;7165;52.388;4.928;2023-05-15T10:14:55;13.70;99.90
14172;DHT22;7165;52.388;4.928;2023-05-15T10:17:24;13.80;99.90
14172;DHT22;7165;52.388;4.928;2023-05-15T10:19:50;13.80;99.90
14172;DHT22;7165;52.388;4.928;2023-05-15T10:22:18;13.80;99.90
14172;DHT22;7165;52.388;4.928;2023-05-15T10:24:45;13.80;99.90
14172;DHT22;7165;52.388;4.928;2023-05-15T10:27:12;13.90;99.90
14172;DHT22;7165;52.388;4.928;2023-05-15T10:29:39;13.90;99.90
14172;DHT22;7165;52.388;4.928;2023-05-15T10:32:06;13.90;99.90
14172;DHT22;7165;52.388;4.928;2023-05-15T10:34:35;14.00;99.90
14172;DHT22;7165;52.388;4.928;2023-05-15T10:37:02;14.10;99.90
14172;DHT22;7165;52.388;4.928;2023-05-15T10:39:28;14.10;99.90
14172;DHT22;7165;52.388;4.928;2023-05-15T10:41:55;14.10;99.90
14172;DHT22;7165;52.388;4.928;2023-05-15T10:44:22;14.00;99.90
14172;DHT22;7165;52.388;4.928;2023-05-15T10:46:49;14.00;99.90
14172;DHT22;7165;52.388;4.928;2023-05-15T10:49:15;14.10;99.90
14172;DHT22;7165;52.388;4.928;2023-05-15T10:51:43;14.20;99.90
14172;DHT22;7165;52.388;4.928;2023-05-15T10:54:10;14.20;99.90
14172;DHT22;7165;52.388;4.928;2023-05-15T10:56:37;14.40;99.90
14172;DHT22;7165;52.388;4.928;2023-05-15T10:59:04;14.70;99.90
14172;DHT22;7165;52.388;4.928;2023-05-15T11:01:32;15.00;99.90
14172;DHT22;7165;52.388;4.928;2023-05-15T11:04:05;15.10;99.90
14172;DHT22;7165;52.388;4.928;2023-05-15T11:06:32;15.20;99.90
14172;DHT22;7165;52.388;4.928;2023-05-15T11:11:53;15.30;99.90
14172;DHT22;7165;52.388;4.928;2023-05-15T11:14:21;15.30;99.90
14172;DHT22;7165;52.388;4.928;2023-05-15T11:17:04;15.40;99.90
14172;DHT22;7165;52.388;4.928;2023-05-15T11:19:34;15.40;99.90
14172;DHT22;7165;52.388;4.928;2023-05-15T11:22:02;15.40;99.90
14172;DHT22;7165;52.388;4.928;2023-05-15T11:24:29;15.60;99.90
14172;DHT22;7165;52.388;4.928;2023-05-15T11:27:01;15.90;99.90
14172;DHT22;7165;52.388;4.928;2023-05-15T11:29:27;16.20;99.90
14172;DHT22;7165;52.388;4.928;2023-05-15T11:31:54;16.60;99.90
14172;DHT22;7165;52.388;4.928;2023-05-15T11:34:30;16.80;99.90
14172;DHT22;7165;52.388;4.928;2023-05-15T11:36:57;17.00;99.90
14172;DHT22;7165;52.388;4.928;2023-05-15T11:39:25;17.10;99.90
14172;DHT22;7165;52.388;4.928;2023-05-15T11:41:51;17.00;99.90
14172;DHT22;7165;52.388;4.928;2023-05-15T11:44:20;17.10;99.90
14172;DHT22;7165;52.388;4.928;2023-05-15T11:46:47;17.10;99.90
14172;DHT22;7165;52.388;4.928;2023-05-15T11:49:14;17.10;99.90
14172;DHT22;7165;52.388;4.928;2023-05-15T11:51:41;17.10;99.90
14172;DHT22;7165;52.388;4.928;2023-05-15T11:54:08;16.90;99.90
14172;DHT22;7165;52.388;4.928;2023-05-15T11:56:35;16.80;99.90
14172;DHT22;7165;52.388;4.928;2023-05-15T11:59:07;16.80;99.90
14172;DHT22;7165;52.388;4.928;2023-05-15T12:01:39;17.10;99.90
14172;DHT22;7165;52.388;4.928;2023-05-15T12:04:15;17.30;99.90
14172;DHT22;7165;52.388;4.928;2023-05-15T12:06:42;17.20;99.90
14172;DHT22;7165;52.388;4.928;2023-05-15T12:09:12;16.90;99.90
14172;DHT22;7165;52.388;4.928;2023-05-15T12:11:40;16.70;99.90
14172;DHT22;7165;52.388;4.928;2023-05-15T12:14:09;16.50;99.90
14172;DHT22;7165;52.388;4.928;2023-05-15T12:16:36;16.10;99.90
14172;DHT22;7165;52.388;4.928;2023-05-15T12:19:04;16.00;99.90
14172;DHT22;7165;52.388;4.928;2023-05-15T12:21:30;15.80;99.90
14172;DHT22;7165;52.388;4.928;2023-05-15T12:23:57;15.60;99.90
14172;DHT22;7165;52.388;4.928;2023-05-15T12:26:23;15.50;99.90
14172;DHT22;7165;52.388;4.928;2023-05-15T12:28:51;15.40;99.90
14172;DHT22;7165;52.388;4.928;2023-05-15T12:31:18;15.30;99.90
14172;DHT22;7165;52.388;4.928;2023-05-15T12:33:45;15.30;99.90
14172;DHT22;7165;52.388;4.928;2023-05-15T12:36:13;15.20;99.90
14172;DHT22;7165;52.388;4.928;2023-05-15T12:38:40;15.10;99.90
14172;DHT22;7165;52.388;4.928;2023-05-15T12:41:09;15.00;99.90
14172;DHT22;7165;52.388;4.928;2023-05-15T12:43:36;15.00;99.90
14172;DHT22;7165;52.388;4.928;2023-05-15T12:46:02;15.00;99.90
14172;DHT22;7165;52.388;4.928;2023-05-15T12:48:30;15.00;99.90
14172;DHT22;7165;52.388;4.928;2023-05-15T12:51:02;15.00;99.90
14172;DHT22;7165;52.388;4.928;2023-05-15T12:53:31;15.10;99.90
14172;DHT22;7165;52.388;4.928;2023-05-15T12:55:58;15.20;99.90
14172;DHT22;7165;52.388;4.928;2023-05-15T12:58:27;15.10;99.90
14172;DHT22;7165;52.388;4.928;2023-05-15T13:00:53;14.80;99.90
14172;DHT22;7165;52.388;4.928;2023-05-15T13:03:21;14.50;99.90
14172;DHT22;7165;52.388;4.928;2023-05-15T13:05:47;14.30;99.90
14172;DHT22;7165;52.388;4.928;2023-05-15T13:08:16;14.20;99.90
14172;DHT22;7165;52.388;4.928;2023-05-15T13:10:44;14.30;99.90
14172;DHT22;7165;52.388;4.928;2023-05-15T13:13:12;14.40;99.90
14172;DHT22;7165;52.388;4.928;2023-05-15T13:15:39;14.60;99.90
14172;DHT22;7165;52.388;4.928;2023-05-15T13:18:06;14.70;99.90
14172;DHT22;7165;52.388;4.928;2023-05-15T13:20:33;14.80;99.90
14172;DHT22;7165;52.388;4.928;2023-05-15T13:23:00;14.70;99.90
14172;DHT22;7165;52.388;4.928;2023-05-15T13:25:27;14.70;99.90
14172;DHT22;7165;52.388;4.928;2023-05-15T13:27:56;14.50;99.90
14172;DHT22;7165;52.388;4.928;2023-05-15T13:30:23;14.40;99.90
14172;DHT22;7165;52.388;4.928;2023-05-15T13:32:50;14.30;99.90
14172;DHT22;7165;52.388;4.928;2023-05-15T13:35:16;14.40;99.90
14172;DHT22;7165;52.388;4.928;2023-05-15T13:37:43;14.30;99.90
14172;DHT22;7165;52.388;4.928;2023-05-15T13:40:10;14.20;99.90
14172;DHT22;7165;52.388;4.928;2023-05-15T13:42:36;14.10;99.90
14172;DHT22;7165;52.388;4.928;2023-05-15T13:45:06;14.10;99.90
14172;DHT22;7165;52.388;4.928;2023-05-15T13:47:33;14.00;99.90
14172;DHT22;7165;52.388;4.928;2023-05-15T13:50:00;14.00;99.90
14172;DHT22;7165;52.388;4.928;2023-05-15T13:52:27;14.10;99.90
14172;DHT22;7165;52.388;4.928;2023-05-15T13:54:53;14.10;99.90
14172;DHT22;7165;52.388;4.928;2023-05-15T13:57:20;14.10;99.90
14172;DHT22;7165;52.388;4.928;2023-05-15T13:59:47;14.10;99.90
14172;DHT22;7165;52.388;4.928;2023-05-15T14:02:15;14.10;99.90
14172;DHT22;7165;52.388;4.928;2023-05-15T14:04:41;14.00;99.90
14172;DHT22;7165;52.388;4.928;2023-05-15T14:07:08;14.10;99.90
14172;DHT22;7165;52.388;4.928;2023-05-15T14:09:34;14.00;99.90
14172;DHT22;7165;52.388;4.928;2023-05-15T14:12:01;13.90;99.90
14172;DHT22;7165;52.388;4.928;2023-05-15T14:14:28;13.80;99.90
14172;DHT22;7165;52.388;4.928;2023-05-15T14:16:54;13.80;99.90
14172;DHT22;7165;52.388;4.928;2023-05-15T14:19:22;13.80;99.90
14172;DHT22;7165;52.388;4.928;2023-05-15T14:21:48;13.80;99.90
14172;DHT22;7165;52.388;4.928;2023-05-15T14:24:15;13.70;99.90
14172;DHT22;7165;52.388;4.928;2023-05-15T14:26:42;13.70;99.90
14172;DHT22;7165;52.388;4.928;2023-05-15T14:29:09;13.50;99.90
14172;DHT22;7165;52.388;4.928;2023-05-15T14:31:36;13.40;99.90
14172;DHT22;7165;52.388;4.928;2023-05-15T14:34:02;13.50;99.90
14172;DHT22;7165;52.388;4.928;2023-05-15T14:36:31;13.50;99.90
14172;DHT22;7165;52.388;4.928;2023-05-15T14:38:58;13.60;99.90
14172;DHT22;7165;52.388;4.928;2023-05-15T14:41:24;13.50;99.90
14172;DHT22;7165;52.388;4.928;2023-05-15T14:43:51;13.50;99.90
14172;DHT22;7165;52.388;4.928;2023-05-15T14:46:17;13.50;99.90
14172;DHT22;7165;52.388;4.928;2023-05-15T14:48:44;13.40;99.90
14172;DHT22;7165;52.388;4.928;2023-05-15T14:51:10;13.40;99.90
14172;DHT22;7165;52.388;4.928;2023-05-15T14:53:38;13.30;99.90
14172;DHT22;7165;52.388;4.928;2023-05-15T14:56:05;13.30;99.90
14172;DHT22;7165;52.388;4.928;2023-05-15T14:58:32;13.40;99.90
14172;DHT22;7165;52.388;4.928;2023-05-15T15:00:58;13.50;99.90
14172;DHT22;7165;52.388;4.928;2023-05-15T15:03:25;13.60;99.90
14172;DHT22;7165;52.388;4.928;2023-05-15T15:05:51;13.60;99.90
14172;DHT22;7165;52.388;4.928;2023-05-15T15:08:18;13.70;99.90
14172;DHT22;7165;52.388;4.928;2023-05-15T15:10:46;13.80;99.90
14172;DHT22;7165;52.388;4.928;2023-05-15T15:13:12;13.80;99.90
14172;DHT22;7165;52.388;4.928;2023-05-15T15:15:40;13.70;99.90
14172;DHT22;7165;52.388;4.928;2023-05-15T15:18:07;13.80;99.90
14172;DHT22;7165;52.388;4.928;2023-05-15T15:20:33;13.90;99.90
14172;DHT22;7165;52.388;4.928;2023-05-15T15:23:01;14.00;99.90
14172;DHT22;7165;52.388;4.928;2023-05-15T15:25:28;14.00;99.90
14172;DHT22;7165;52.388;4.928;2023-05-15T15:27:56;14.00;99.90
14172;DHT22;7165;52.388;4.928;2023-05-15T15:30:22;14.10;99.90
14172;DHT22;7165;52.388;4.928;2023-05-15T15:32:49;14.00;99.90
14172;DHT22;7165;52.388;4.928;2023-05-15T15:35:15;14.00;99.90
14172;DHT22;7165;52.388;4.928;2023-05-15T15:37:42;14.00;99.90
14172;DHT22;7165;52.388;4.928;2023-05-15T15:40:09;13.90;99.90
14172;DHT22;7165;52.388;4.928;2023-05-15T15:42:36;13.90;99.90
14172;DHT22;7165;52.388;4.928;2023-05-15T15:45:05;13.90;99.90
14172;DHT22;7165;52.388;4.928;2023-05-15T15:47:31;13.90;99.90
14172;DHT22;7165;52.388;4.928;2023-05-15T15:49:58;13.90;99.90
14172;DHT22;7165;52.388;4.928;2023-05-15T15:52:25;13.90;99.90
14172;DHT22;7165;52.388;4.928;2023-05-15T15:54:51;13.90;99.90
14172;DHT22;7165;52.388;4.928;2023-05-15T15:57:18;13.80;99.90